Time;durP1;ratioP1;P1;durP2;ratioP2;P2;SDS_P1;SDS_P2;PMS_P1;PMS_P2;Temp;Humidity;BMP_temperature;BMP_pressure;BME280_temperature;BME280_humidity;BME280_pressure;Samples;Min_cycle;Max_cycle;Signal;HPM_P1;HPM_P2
2022/10/03 00:01:29;;;;;;;4.43;2.10;;;;;;;;;;4981451;28;20185;-43
2022/10/03 00:04:05;;;;;;;5.57;2.03;;;;;;;;;;4980563;28;20204;-43
2022/10/03 00:06:31;;;;;;;3.77;2.00;;;;;;;;;;4980306;28;20176;-42
2022/10/03 00:09:26;;;;;;;5.10;2.10;;;;;;;;;;4979208;28;20176;-43
2022/10/03 00:11:52;;;;;;;5.70;2.33;;;;;;;;;;4983467;28;21181;-41
2022/10/03 00:14:54;;;;;;;6.57;3.60;;;;;;;;;;4980013;28;20188;-42
2022/10/03 00:17:39;;;;;;;8.00;4.23;;;;;;;;;;4992629;28;21341;-43
2022/10/03 00:20:08;;;;;;;11.13;5.50;;;;;;;;;;4979661;28;20190;-42
2022/10/03 00:22:47;;;;;;;13.17;6.17;;;;;;;;;;4982325;28;20200;-43
2022/10/03 00:25:28;;;;;;;11.97;6.27;;;;;;;;;;4980233;28;20164;-43
2022/10/03 00:28:15;;;;;;;10.43;6.23;;;;;;;;;;4982988;28;20188;-43
2022/10/03 00:31:01;;;;;;;9.07;5.37;;;;;;;;;;4981822;28;20181;-44
2022/10/03 00:33:30;;;;;;;10.97;5.90;;;;;;;;;;4982656;28;20193;-44
2022/10/03 00:35:56;;;;;;;8.00;5.93;;;;;;;;;;4984813;28;20173;-42
2022/10/03 00:38:26;;;;;;;7.13;5.20;;;;;;;;;;4983813;28;20223;-43
2022/10/03 00:40:56;;;;;;;7.67;5.50;;;;;;;;;;4981114;28;20173;-43
2022/10/03 00:43:42;;;;;;;11.17;5.40;;;;;;;;;;4979408;28;20930;-43
2022/10/03 00:46:24;;;;;;;8.77;5.30;;;;;;;;;;4979808;28;20292;-43
2022/10/03 00:49:09;;;;;;;9.40;4.97;;;;;;;;;;4982291;28;20173;-43
2022/10/03 00:51:53;;;;;;;10.47;5.37;;;;;;;;;;4983405;28;20177;-44
2022/10/03 00:54:39;;;;;;;7.00;3.97;;;;;;;;;;4984515;28;20173;-43
2022/10/03 00:57:13;;;;;;;9.23;4.97;;;;;;;;;;4988304;28;20181;-44
2022/10/03 00:59:58;;;;;;;7.67;4.20;;;;;;;;;;4986594;28;20173;-44
2022/10/03 01:02:36;;;;;;;11.03;4.57;;;;;;;;;;4987052;28;20303;-44
2022/10/03 01:05:08;;;;;;;8.77;4.03;;;;;;;;;;4980471;28;20208;-43
2022/10/03 01:07:37;;;;;;;9.63;4.00;;;;;;;;;;4984487;28;20173;-43
2022/10/03 01:10:15;;;;;;;10.77;3.97;;;;;;;;;;4986421;28;20217;-42
2022/10/03 01:12:51;;;;;;;6.43;3.43;;;;;;;;;;4984635;28;20691;-44
2022/10/03 01:15:36;;;;;;;7.70;4.10;;;;;;;;;;4983598;28;20172;-43
2022/10/03 01:18:17;;;;;;;6.67;4.27;;;;;;;;;;4984002;28;20982;-44
2022/10/03 01:20:43;;;;;;;9.97;4.43;;;;;;;;;;4982723;28;20629;-43
2022/10/03 01:23:22;;;;;;;10.07;4.93;;;;;;;;;;4987813;28;21123;-43
2022/10/03 01:25:51;;;;;;;6.13;4.53;;;;;;;;;;4983511;28;21109;-43
2022/10/03 01:31:08;;;;;;;9.80;4.63;;;;;;;;;;4985388;28;21202;-43
2022/10/03 01:33:41;;;;;;;8.37;3.90;;;;;;;;;;4984482;28;20188;-43
2022/10/03 01:36:20;;;;;;;10.00;5.43;;;;;;;;;;4986391;28;20213;-43
2022/10/03 01:38:54;;;;;;;9.93;5.47;;;;;;;;;;4984363;28;20180;-43
2022/10/03 01:41:45;;;;;;;8.33;6.33;;;;;;;;;;4983666;28;20284;-42
2022/10/03 01:44:26;;;;;;;10.50;7.47;;;;;;;;;;4991212;28;20212;-43
2022/10/03 01:46:55;;;;;;;9.43;7.27;;;;;;;;;;4984580;28;20181;-43
2022/10/03 01:49:45;;;;;;;12.93;7.50;;;;;;;;;;4984450;28;20178;-43
2022/10/03 01:52:20;;;;;;;12.10;7.40;;;;;;;;;;4985545;28;20173;-44
2022/10/03 01:54:55;;;;;;;10.93;6.67;;;;;;;;;;4984592;28;20176;-41
2022/10/03 01:57:24;;;;;;;12.07;7.07;;;;;;;;;;4984888;28;21271;-43
2022/10/03 01:59:51;;;;;;;12.00;6.77;;;;;;;;;;4987531;28;20260;-43
2022/10/03 02:02:20;;;;;;;11.70;6.30;;;;;;;;;;4985676;28;20236;-43
2022/10/03 02:05:04;;;;;;;9.43;6.53;;;;;;;;;;4983005;28;21593;-43
2022/10/03 02:07:39;;;;;;;13.97;8.73;;;;;;;;;;4985825;28;20177;-43
2022/10/03 02:10:06;;;;;;;11.63;7.40;;;;;;;;;;4986745;28;20753;-43
2022/10/03 02:12:55;;;;;;;13.83;8.43;;;;;;;;;;4984648;28;20215;-43
2022/10/03 02:15:27;;;;;;;12.77;6.97;;;;;;;;;;4982159;28;20189;-42
2022/10/03 02:18:12;;;;;;;9.87;6.37;;;;;;;;;;4983711;28;20264;-43
2022/10/03 02:20:44;;;;;;;13.27;6.77;;;;;;;;;;4983908;28;20173;-43
2022/10/03 02:23:30;;;;;;;10.83;7.53;;;;;;;;;;4981144;28;20201;-43
2022/10/03 02:26:01;;;;;;;13.87;8.37;;;;;;;;;;4982093;28;20192;-43
2022/10/03 02:28:46;;;;;;;8.83;7.17;;;;;;;;;;4983913;28;20186;-42
2022/10/03 02:31:28;;;;;;;12.07;7.27;;;;;;;;;;4984700;28;21081;-42
2022/10/03 02:33:55;;;;;;;11.17;8.07;;;;;;;;;;4984917;28;20173;-42
2022/10/03 02:36:39;;;;;;;11.57;7.67;;;;;;;;;;4984326;28;20211;-42
2022/10/03 02:39:08;;;;;;;13.63;8.07;;;;;;;;;;4981428;28;20181;-43
2022/10/03 02:41:48;;;;;;;10.17;7.60;;;;;;;;;;4980979;28;20181;-41
2022/10/03 02:44:21;;;;;;;11.73;8.17;;;;;;;;;;4984416;28;20205;-42
2022/10/03 02:47:07;;;;;;;13.93;8.73;;;;;;;;;;4983776;28;20771;-43
2022/10/03 02:49:46;;;;;;;12.60;7.53;;;;;;;;;;4984104;28;20184;-44
2022/10/03 02:52:25;;;;;;;13.67;9.20;;;;;;;;;;4981729;28;20200;-41
2022/10/03 02:55:09;;;;;;;14.77;10.37;;;;;;;;;;4982295;28;21302;-43
2022/10/03 02:57:55;;;;;;;13.90;8.67;;;;;;;;;;4983737;28;20227;-43
2022/10/03 03:00:22;;;;;;;13.73;11.40;;;;;;;;;;5016513;28;20191;-43
2022/10/03 03:03:05;;;;;;;18.03;10.57;;;;;;;;;;4983699;28;20204;-43
2022/10/03 03:05:39;;;;;;;14.07;11.40;;;;;;;;;;4980976;28;20218;-42
2022/10/03 03:08:05;;;;;;;13.23;10.83;;;;;;;;;;4982200;28;20177;-43
2022/10/03 03:10:50;;;;;;;14.60;10.73;;;;;;;;;;4982552;28;20177;-43
2022/10/03 03:13:40;;;;;;;17.50;12.33;;;;;;;;;;4985624;28;20186;-43
2022/10/03 03:16:39;;;;;;;16.90;11.77;;;;;;;;;;4983114;28;20259;-44
2022/10/03 03:19:24;;;;;;;15.97;11.47;;;;;;;;;;4991706;28;20193;-43
2022/10/03 03:21:57;;;;;;;16.70;12.90;;;;;;;;;;4984018;28;21106;-44
2022/10/03 03:24:38;;;;;;;22.23;14.87;;;;;;;;;;4980823;28;20177;-44
2022/10/03 03:27:13;;;;;;;18.57;14.03;;;;;;;;;;4981884;28;20200;-43
2022/10/03 03:29:42;;;;;;;22.30;15.83;;;;;;;;;;4983518;28;20188;-44
2022/10/03 03:32:26;;;;;;;17.97;14.13;;;;;;;;;;4984545;28;20181;-43
2022/10/03 03:35:12;;;;;;;30.60;21.53;;;;;;;;;;4982531;28;20185;-44
2022/10/03 03:37:53;;;;;;;26.80;18.60;;;;;;;;;;4983535;28;20184;-44
2022/10/03 03:40:28;;;;;;;25.53;18.23;;;;;;;;;;4983108;28;20180;-42
2022/10/03 03:42:57;;;;;;;26.97;20.03;;;;;;;;;;4986085;28;20627;-40
2022/10/03 03:45:42;;;;;;;26.43;20.73;;;;;;;;;;4981147;28;20186;-41
2022/10/03 03:48:11;;;;;;;39.03;25.23;;;;;;;;;;4980688;28;20182;-41
2022/10/03 03:50:51;;;;;;;29.20;22.50;;;;;;;;;;4981677;28;21017;-42
2022/10/03 03:53:17;;;;;;;30.73;22.70;;;;;;;;;;4983448;28;20180;-42
2022/10/03 03:55:47;;;;;;;35.67;25.40;;;;;;;;;;4980744;28;20271;-42
2022/10/03 03:58:32;;;;;;;32.07;22.87;;;;;;;;;;4982697;28;20514;-43
2022/10/03 04:01:19;;;;;;;28.03;23.50;;;;;;;;;;4982945;28;20169;-42
2022/10/03 04:04:08;;;;;;;26.23;20.57;;;;;;;;;;4980976;28;20201;-42
2022/10/03 04:06:55;;;;;;;34.23;25.10;;;;;;;;;;4981548;28;20208;-42
2022/10/03 04:09:21;;;;;;;34.70;26.77;;;;;;;;;;4978843;28;20184;-41
2022/10/03 04:12:10;;;;;;;41.30;30.10;;;;;;;;;;4985068;28;21611;-42
2022/10/03 04:14:42;;;;;;;35.20;26.43;;;;;;;;;;4986330;28;20327;-43
2022/10/03 04:20:18;;;;;;;38.97;28.73;;;;;;;;;;4981460;28;20247;-41
2022/10/03 04:23:02;;;;;;;39.50;29.53;;;;;;;;;;4980953;28;21983;-41
2022/10/03 04:25:30;;;;;;;34.43;24.63;;;;;;;;;;4983835;28;20256;-43
2022/10/03 04:28:15;;;;;;;38.00;26.63;;;;;;;;;;4982598;28;20311;-41
2022/10/03 04:31:06;;;;;;;32.47;24.03;;;;;;;;;;4979015;28;20997;-41
2022/10/03 04:33:32;;;;;;;26.43;19.47;;;;;;;;;;4978430;28;20237;-42
2022/10/03 04:36:05;;;;;;;33.93;20.90;;;;;;;;;;4980350;28;20189;-41
2022/10/03 04:38:37;;;;;;;26.47;17.90;;;;;;;;;;4983334;28;20216;-43
2022/10/03 04:41:26;;;;;;;29.30;19.13;;;;;;;;;;4981162;28;21230;-42
2022/10/03 04:43:57;;;;;;;29.47;17.60;;;;;;;;;;4981444;28;20217;-43
2022/10/03 04:46:35;;;;;;;25.43;16.63;;;;;;;;;;4978813;28;21383;-42
2022/10/03 04:49:01;;;;;;;23.27;15.87;;;;;;;;;;4982952;28;20173;-43
2022/10/03 04:51:51;;;;;;;27.50;17.97;;;;;;;;;;4981793;28;20267;-41
2022/10/03 04:54:37;;;;;;;30.53;16.80;;;;;;;;;;4980275;28;20173;-42
2022/10/03 04:57:03;;;;;;;32.50;17.23;;;;;;;;;;4980190;28;20956;-43
2022/10/03 04:59:33;;;;;;;20.77;15.50;;;;;;;;;;4982890;28;20330;-41
2022/10/03 05:02:05;;;;;;;20.77;13.50;;;;;;;;;;4985987;28;20259;-43
2022/10/03 05:04:52;;;;;;;21.47;15.03;;;;;;;;;;4981264;28;20991;-43
2022/10/03 05:07:35;;;;;;;22.20;16.07;;;;;;;;;;4979520;28;20260;-43
2022/10/03 05:10:16;;;;;;;20.47;13.30;;;;;;;;;;4981571;28;20188;-42
2022/10/03 05:13:12;;;;;;;24.93;14.33;;;;;;;;;;4981347;28;20181;-42
2022/10/03 05:15:41;;;;;;;22.77;14.10;;;;;;;;;;4997066;28;20200;-42
2022/10/03 05:18:16;;;;;;;18.93;12.37;;;;;;;;;;4981479;28;20188;-43
2022/10/03 05:21:04;;;;;;;26.07;14.37;;;;;;;;;;4981646;28;20239;-43
2022/10/03 05:23:44;;;;;;;19.97;13.40;;;;;;;;;;4982005;28;20331;-43
2022/10/03 05:26:18;;;;;;;16.13;9.87;;;;;;;;;;4979597;28;20169;-43
2022/10/03 05:28:53;;;;;;;16.50;10.77;;;;;;;;;;4975429;28;20993;-42
2022/10/03 05:31:20;;;;;;;13.90;9.47;;;;;;;;;;4978490;28;20710;-43
2022/10/03 05:33:52;;;;;;;11.90;8.70;;;;;;;;;;4976534;28;20188;-43
2022/10/03 05:36:25;;;;;;;15.13;9.20;;;;;;;;;;4981823;28;20217;-43
2022/10/03 05:39:10;;;;;;;14.47;8.97;;;;;;;;;;4979718;28;21575;-42
2022/10/03 05:41:37;;;;;;;18.33;10.07;;;;;;;;;;4978776;28;20181;-43
2022/10/03 05:44:07;;;;;;;13.57;9.23;;;;;;;;;;4979615;28;20232;-42
2022/10/03 05:46:51;;;;;;;14.10;8.30;;;;;;;;;;4983371;28;21227;-43
2022/10/03 05:49:30;;;;;;;14.30;8.80;;;;;;;;;;4983954;28;20309;-41
2022/10/03 05:52:16;;;;;;;10.97;8.33;;;;;;;;;;4980870;28;20172;-43
2022/10/03 05:54:42;;;;;;;13.47;7.63;;;;;;;;;;4982381;28;20203;-41
2022/10/03 05:57:08;;;;;;;13.17;7.93;;;;;;;;;;4984043;28;20205;-43
2022/10/03 05:59:34;;;;;;;12.87;7.77;;;;;;;;;;4983877;28;20197;-43
2022/10/03 06:02:20;;;;;;;11.73;7.53;;;;;;;;;;4986707;28;20207;-43
2022/10/03 06:05:02;;;;;;;14.30;7.67;;;;;;;;;;4986734;28;20192;-53
2022/10/03 06:07:39;;;;;;;13.77;8.63;;;;;;;;;;4987542;28;20202;-43
2022/10/03 06:10:24;;;;;;;17.73;9.30;;;;;;;;;;4989075;28;20582;-43
2022/10/03 06:13:03;;;;;;;12.10;8.33;;;;;;;;;;4990770;28;20458;-43
2022/10/03 06:15:38;;;;;;;13.90;9.80;;;;;;;;;;4985036;28;20970;-44
2022/10/03 06:18:10;;;;;;;12.90;9.10;;;;;;;;;;4989834;28;20177;-43
2022/10/03 06:20:40;;;;;;;16.23;8.93;;;;;;;;;;4989512;28;20745;-43
2022/10/03 06:23:12;;;;;;;14.30;8.87;;;;;;;;;;4990366;28;20207;-43
2022/10/03 06:25:44;;;;;;;14.43;9.03;;;;;;;;;;4985622;28;20712;-43
2022/10/03 06:28:10;;;;;;;16.63;9.50;;;;;;;;;;4989979;28;20433;-43
2022/10/03 06:30:37;;;;;;;13.67;9.10;;;;;;;;;;4990473;28;20621;-42
2022/10/03 06:33:16;;;;;;;14.07;8.17;;;;;;;;;;4986465;28;20228;-43
2022/10/03 06:36:05;;;;;;;14.30;7.30;;;;;;;;;;4986637;28;20712;-43
2022/10/03 06:38:33;;;;;;;11.73;6.83;;;;;;;;;;4986788;28;20539;-43
2022/10/03 06:41:26;;;;;;;9.97;6.10;;;;;;;;;;4986517;28;20181;-43
2022/10/03 06:44:18;;;;;;;13.80;6.30;;;;;;;;;;4987677;28;20628;-43
2022/10/03 06:46:44;;;;;;;11.13;6.63;;;;;;;;;;4986601;28;20181;-43
2022/10/03 06:49:35;;;;;;;10.60;6.87;;;;;;;;;;4983898;28;20449;-44
2022/10/03 06:52:11;;;;;;;10.97;6.80;;;;;;;;;;5016155;28;20231;-43
2022/10/03 06:54:37;;;;;;;13.00;7.40;;;;;;;;;;4986877;28;20459;-43
2022/10/03 06:57:22;;;;;;;14.50;7.40;;;;;;;;;;4988642;28;20380;-42
2022/10/03 07:00:18;;;;;;;11.53;8.00;;;;;;;;;;4987225;28;20185;-43
2022/10/03 07:02:53;;;;;;;14.33;7.67;;;;;;;;;;4987726;28;20213;-42
2022/10/03 07:05:35;;;;;;;11.53;6.33;;;;;;;;;;4981191;28;20176;-43
2022/10/03 07:08:04;;;;;;;9.33;6.53;;;;;;;;;;4986930;28;20168;-43
2022/10/03 07:10:34;;;;;;;13.93;7.00;;;;;;;;;;4987960;28;20519;-43
2022/10/03 07:13:38;;;;;;;12.53;7.83;;;;;;;;;;4982227;28;20183;-45
2022/10/03 07:16:17;;;;;;;18.33;8.07;;;;;;;;;;5003583;28;20180;-43
2022/10/03 07:19:01;;;;;;;13.27;7.63;;;;;;;;;;4992641;28;20224;-43
2022/10/03 07:21:46;;;;;;;10.33;7.23;;;;;;;;;;4988751;28;20721;-43
2022/10/03 07:24:18;;;;;;;11.50;7.23;;;;;;;;;;4986830;28;20675;-43
2022/10/03 07:27:08;;;;;;;14.03;7.43;;;;;;;;;;4984199;28;20554;-43
2022/10/03 07:29:40;;;;;;;12.30;8.00;;;;;;;;;;4995425;28;20244;-43
2022/10/03 07:32:19;;;;;;;9.27;6.70;;;;;;;;;;4990361;28;20172;-44
2022/10/03 07:35:03;;;;;;;13.03;7.27;;;;;;;;;;4987036;28;20688;-43
2022/10/03 07:40:38;;;;;;;12.43;6.60;;;;;;;;;;4990543;28;20189;-44
2022/10/03 07:43:25;;;;;;;11.80;6.20;;;;;;;;;;4989789;28;20833;-44
2022/10/03 07:46:14;;;;;;;14.73;6.13;;;;;;;;;;4986304;28;20693;-44
2022/10/03 07:48:41;;;;;;;9.73;6.00;;;;;;;;;;4975722;28;20216;-43
2022/10/03 07:51:07;;;;;;;8.50;5.30;;;;;;;;;;4986623;28;20184;-44
2022/10/03 07:53:33;;;;;;;12.40;5.30;;;;;;;;;;4990854;28;20181;-43
2022/10/03 07:56:02;;;;;;;12.93;5.87;;;;;;;;;;4988013;28;20189;-44
2022/10/03 07:58:28;;;;;;;11.00;5.30;;;;;;;;;;4987977;28;20199;-43
2022/10/03 08:01:14;;;;;;;12.57;5.30;;;;;;;;;;4983994;28;20197;-44
2022/10/03 08:03:55;;;;;;;11.93;5.63;;;;;;;;;;4988533;28;20212;-44
2022/10/03 08:06:26;;;;;;;12.10;4.27;;;;;;;;;;4989352;28;20188;-44
2022/10/03 08:09:04;;;;;;;11.40;4.43;;;;;;;;;;4992036;28;20669;-44
2022/10/03 08:11:30;;;;;;;12.20;4.50;;;;;;;;;;4985326;28;20643;-44
2022/10/03 08:14:14;;;;;;;9.87;4.13;;;;;;;;;;4985277;28;20208;-45
2022/10/03 08:16:59;;;;;;;11.90;4.70;;;;;;;;;;4988437;28;20212;-44
2022/10/03 08:19:40;;;;;;;11.43;4.60;;;;;;;;;;4987586;28;20193;-44
2022/10/03 08:22:12;;;;;;;8.17;4.37;;;;;;;;;;4987505;28;20323;-44
2022/10/03 08:24:54;;;;;;;10.10;4.33;;;;;;;;;;4983948;28;20632;-43
2022/10/03 08:27:46;;;;;;;15.63;4.80;;;;;;;;;;4985984;28;20517;-42
2022/10/03 08:30:22;;;;;;;13.97;5.57;;;;;;;;;;4996466;28;20472;-41
2022/10/03 08:32:48;;;;;;;15.43;6.47;;;;;;;;;;4987598;28;20450;-42
2022/10/03 08:35:17;;;;;;;18.20;7.80;;;;;;;;;;4987213;28;20181;-42
2022/10/03 08:38:02;;;;;;;18.90;8.57;;;;;;;;;;4988377;28;20618;-42
2022/10/03 08:40:52;;;;;;;13.80;6.60;;;;;;;;;;4986681;28;20288;-43
2022/10/03 08:43:37;;;;;;;12.23;5.10;;;;;;;;;;4982265;28;20586;-43
2022/10/03 08:46:06;;;;;;;11.23;5.10;;;;;;;;;;4988604;28;20457;-42
2022/10/03 08:48:47;;;;;;;16.80;6.07;;;;;;;;;;4988597;28;20856;-42
2022/10/03 08:51:16;;;;;;;12.83;5.73;;;;;;;;;;4987788;28;20173;-42
2022/10/03 08:53:43;;;;;;;13.70;6.27;;;;;;;;;;4984069;28;20185;-43
2022/10/03 08:56:09;;;;;;;13.77;6.10;;;;;;;;;;4985739;28;20469;-41
2022/10/03 08:58:47;;;;;;;12.00;5.93;;;;;;;;;;4988239;28;20193;-43
2022/10/03 09:01:22;;;;;;;13.53;5.70;;;;;;;;;;4986825;28;20192;-41
2022/10/03 09:04:03;;;;;;;17.30;6.70;;;;;;;;;;4985364;28;20315;-43
2022/10/03 09:06:29;;;;;;;19.43;6.70;;;;;;;;;;4984507;28;20243;-43
2022/10/03 09:09:05;;;;;;;16.87;7.30;;;;;;;;;;4988580;28;20174;-43
2022/10/03 09:11:50;;;;;;;15.90;7.27;;;;;;;;;;4989682;28;20184;-43
2022/10/03 09:14:19;;;;;;;15.17;6.50;;;;;;;;;;4990991;28;20918;-43
2022/10/03 09:16:58;;;;;;;20.30;6.97;;;;;;;;;;4989208;28;20602;-43
2022/10/03 09:19:24;;;;;;;17.87;7.67;;;;;;;;;;4988382;28;20642;-42
2022/10/03 09:21:54;;;;;;;14.03;6.83;;;;;;;;;;4990540;28;20272;-43
2022/10/03 09:24:39;;;;;;;13.47;6.70;;;;;;;;;;4990238;28;20205;-42
2022/10/03 09:27:25;;;;;;;15.70;6.13;;;;;;;;;;4990388;28;20883;-43
2022/10/03 09:29:51;;;;;;;13.43;6.53;;;;;;;;;;4989357;28;20627;-43
2022/10/03 09:32:26;;;;;;;19.07;8.03;;;;;;;;;;4987711;28;20692;-43
2022/10/03 09:35:08;;;;;;;19.33;8.77;;;;;;;;;;4991640;28;20183;-43
2022/10/03 09:37:43;;;;;;;14.50;7.77;;;;;;;;;;4992498;28;20173;-43
2022/10/03 09:40:28;;;;;;;14.27;6.57;;;;;;;;;;4992269;28;20181;-41
2022/10/03 09:42:55;;;;;;;13.23;7.50;;;;;;;;;;4985986;28;20757;-42
2022/10/03 09:45:39;;;;;;;15.40;7.03;;;;;;;;;;4989141;28;20188;-43
2022/10/03 09:48:05;;;;;;;14.17;7.30;;;;;;;;;;4987943;28;20862;-42
2022/10/03 09:50:40;;;;;;;17.60;7.90;;;;;;;;;;4990375;28;20621;-43
2022/10/03 09:53:26;;;;;;;15.37;6.33;;;;;;;;;;4985798;28;20178;-42
2022/10/03 09:56:11;;;;;;;14.93;6.20;;;;;;;;;;4988206;28;20195;-43
2022/10/03 09:58:55;;;;;;;13.87;5.63;;;;;;;;;;4989476;28;20217;-43
2022/10/03 10:01:22;;;;;;;15.67;6.63;;;;;;;;;;4991949;28;20196;-42
2022/10/03 10:03:53;;;;;;;18.00;7.20;;;;;;;;;;4991295;28;20999;-41
2022/10/03 10:06:38;;;;;;;16.83;6.80;;;;;;;;;;4986633;28;20714;-42
2022/10/03 10:09:23;;;;;;;14.03;5.77;;;;;;;;;;4986129;28;20857;-42
2022/10/03 10:12:08;;;;;;;15.47;5.80;;;;;;;;;;4987420;28;20445;-42
2022/10/03 10:14:37;;;;;;;18.53;6.13;;;;;;;;;;4989600;28;20998;-42
2022/10/03 10:17:15;;;;;;;15.57;5.57;;;;;;;;;;4985700;28;20268;-42
2022/10/03 10:19:41;;;;;;;12.17;5.23;;;;;;;;;;4987751;28;20550;-42
2022/10/03 10:22:26;;;;;;;11.77;4.60;;;;;;;;;;4992668;28;20263;-43
2022/10/03 10:25:01;;;;;;;11.10;4.53;;;;;;;;;;4988584;28;21058;-43
2022/10/03 10:27:41;;;;;;;11.43;4.40;;;;;;;;;;4987513;28;20949;-42
2022/10/03 10:30:26;;;;;;;10.50;4.00;;;;;;;;;;4988719;28;20846;-41
2022/10/03 10:32:52;;;;;;;11.73;4.23;;;;;;;;;;4989836;28;20612;-41
2022/10/03 10:35:20;;;;;;;13.93;5.50;;;;;;;;;;4990189;28;20652;-42
2022/10/03 10:38:06;;;;;;;13.27;5.83;;;;;;;;;;4987303;28;20224;-42
2022/10/03 10:40:48;;;;;;;17.10;6.43;;;;;;;;;;4989739;28;21078;-41
2022/10/03 10:43:14;;;;;;;17.30;6.73;;;;;;;;;;4994253;28;20607;-43
2022/10/03 10:45:59;;;;;;;14.50;6.20;;;;;;;;;;4990187;28;20513;-42
2022/10/03 10:48:28;;;;;;;14.93;6.03;;;;;;;;;;4986442;28;20204;-43
2022/10/03 10:51:12;;;;;;;15.90;6.20;;;;;;;;;;4988007;28;20676;-43
2022/10/03 10:53:57;;;;;;;14.27;5.53;;;;;;;;;;4990766;28;20234;-43
2022/10/03 10:56:42;;;;;;;18.03;6.50;;;;;;;;;;4988376;28;20177;-42
2022/10/03 10:59:26;;;;;;;12.97;5.40;;;;;;;;;;4986937;28;20736;-42
2022/10/03 11:02:01;;;;;;;20.10;5.20;;;;;;;;;;4988416;28;20281;-42
2022/10/03 11:04:46;;;;;;;13.83;5.00;;;;;;;;;;4987945;28;20596;-43
2022/10/03 11:07:12;;;;;;;14.40;5.50;;;;;;;;;;4988327;28;20246;-41
2022/10/03 11:09:57;;;;;;;15.80;5.77;;;;;;;;;;4986921;28;20174;-42
2022/10/03 11:12:26;;;;;;;17.17;6.00;;;;;;;;;;4986122;28;20177;-42
2022/10/03 11:15:10;;;;;;;12.83;5.13;;;;;;;;;;4986927;28;20892;-43
2022/10/03 11:17:37;;;;;;;10.43;5.30;;;;;;;;;;4991110;28;20181;-41
2022/10/03 11:20:12;;;;;;;12.00;5.43;;;;;;;;;;4989272;28;20177;-42
2022/10/03 11:22:51;;;;;;;13.00;4.73;;;;;;;;;;4984537;28;20566;-42
2022/10/03 11:25:36;;;;;;;11.23;4.57;;;;;;;;;;4986756;28;20501;-42
2022/10/03 11:28:34;;;;;;;14.00;4.80;;;;;;;;;;4990859;28;20675;-42
2022/10/03 11:31:06;;;;;;;12.93;4.70;;;;;;;;;;4998510;28;20392;-42
2022/10/03 11:33:51;;;;;;;11.00;3.97;;;;;;;;;;4984465;28;20940;-42
2022/10/03 11:36:29;;;;;;;11.47;4.17;;;;;;;;;;4986488;28;20177;-42
2022/10/03 11:39:01;;;;;;;13.33;4.00;;;;;;;;;;4991403;28;20441;-43
2022/10/03 11:41:27;;;;;;;12.47;4.00;;;;;;;;;;4990882;28;20231;-43
2022/10/03 11:44:12;;;;;;;10.80;3.40;;;;;;;;;;4986539;28;20709;-42
2022/10/03 11:46:38;;;;;;;11.57;4.10;;;;;;;;;;4985487;28;20818;-42
2022/10/03 11:49:23;;;;;;;10.07;3.53;;;;;;;;;;4983713;28;20541;-42
2022/10/03 11:52:08;;;;;;;13.17;3.87;;;;;;;;;;4988152;28;21599;-43
2022/10/03 11:54:39;;;;;;;12.47;3.80;;;;;;;;;;4989033;28;20258;-42
2022/10/03 11:57:08;;;;;;;12.07;3.47;;;;;;;;;;4985969;28;20625;-43
2022/10/03 11:59:54;;;;;;;10.87;4.27;;;;;;;;;;4983433;28;20468;-43
2022/10/03 12:02:20;;;;;;;12.20;3.70;;;;;;;;;;4985918;28;20562;-43
2022/10/03 12:04:55;;;;;;;12.77;4.00;;;;;;;;;;4988138;28;20216;-42
2022/10/03 12:10:06;;;;;;;9.53;3.10;;;;;;;;;;4986013;28;20856;-42
2022/10/03 12:12:41;;;;;;;17.03;3.70;;;;;;;;;;4981345;28;20180;-43
2022/10/03 12:15:16;;;;;;;7.70;3.00;;;;;;;;;;4986577;28;20214;-43
2022/10/03 12:17:45;;;;;;;10.37;3.00;;;;;;;;;;4986381;28;20173;-43
2022/10/03 12:20:25;;;;;;;11.97;3.63;;;;;;;;;;4984960;28;20393;-42
2022/10/03 12:22:58;;;;;;;10.87;3.67;;;;;;;;;;4987986;28;20220;-43
2022/10/03 12:25:25;;;;;;;10.47;3.30;;;;;;;;;;4985667;28;20169;-43
2022/10/03 12:28:06;;;;;;;10.03;3.30;;;;;;;;;;4985144;28;20181;-43
2022/10/03 12:30:39;;;;;;;10.27;3.37;;;;;;;;;;4989412;28;20640;-43
2022/10/03 12:33:20;;;;;;;12.33;3.27;;;;;;;;;;4987570;28;20543;-43
2022/10/03 12:36:01;;;;;;;8.47;2.63;;;;;;;;;;4983248;28;20173;-42
2022/10/03 12:38:32;;;;;;;9.10;3.20;;;;;;;;;;4987592;28;20478;-43
2022/10/03 12:41:17;;;;;;;11.90;3.10;;;;;;;;;;4992481;28;20916;-43
2022/10/03 12:43:54;;;;;;;12.63;3.17;;;;;;;;;;4978882;28;20710;-43
2022/10/03 12:46:20;;;;;;;6.83;2.70;;;;;;;;;;4986220;28;20584;-43
2022/10/03 12:48:56;;;;;;;8.03;2.80;;;;;;;;;;4987070;28;20282;-43
2022/10/03 12:51:34;;;;;;;9.13;2.43;;;;;;;;;;4994682;28;20819;-43
2022/10/03 12:54:00;;;;;;;7.77;2.33;;;;;;;;;;4993464;28;20165;-42
2022/10/03 12:56:30;;;;;;;7.83;2.30;;;;;;;;;;4990402;28;20675;-43
2022/10/03 12:59:11;;;;;;;9.97;2.70;;;;;;;;;;4987794;28;20285;-43
2022/10/03 13:02:01;;;;;;;9.13;2.40;;;;;;;;;;4988444;28;20266;-43
2022/10/03 13:04:33;;;;;;;9.20;2.83;;;;;;;;;;4990452;28;20605;-43
2022/10/03 13:07:14;;;;;;;8.57;2.50;;;;;;;;;;4992943;28;20177;-44
2022/10/03 13:09:58;;;;;;;11.47;3.00;;;;;;;;;;4992029;28;20575;-43
2022/10/03 13:12:34;;;;;;;7.60;2.30;;;;;;;;;;4988251;28;20181;-43
2022/10/03 13:15:19;;;;;;;10.40;2.73;;;;;;;;;;4988556;28;20906;-43
2022/10/03 13:17:49;;;;;;;7.70;2.37;;;;;;;;;;4989052;28;20182;-43
2022/10/03 13:20:24;;;;;;;7.20;2.47;;;;;;;;;;4989872;28;20612;-43
2022/10/03 13:22:50;;;;;;;10.67;2.87;;;;;;;;;;4991693;28;20173;-43
2022/10/03 13:25:22;;;;;;;9.07;2.80;;;;;;;;;;4991120;28;20183;-42
2022/10/03 13:28:00;;;;;;;9.43;2.37;;;;;;;;;;4986588;28;20514;-43
2022/10/03 13:30:39;;;;;;;9.83;2.47;;;;;;;;;;4986970;28;20174;-43
2022/10/03 13:33:15;;;;;;;9.37;2.83;;;;;;;;;;4993420;28;20643;-43
2022/10/03 13:35:58;;;;;;;7.97;2.30;;;;;;;;;;4988060;28;20176;-43
2022/10/03 13:38:45;;;;;;;9.33;2.97;;;;;;;;;;4985419;28;20727;-43
2022/10/03 13:41:11;;;;;;;10.17;2.63;;;;;;;;;;4990412;28;20178;-43
2022/10/03 13:43:38;;;;;;;12.37;2.83;;;;;;;;;;4994779;28;20562;-43
2022/10/03 13:46:15;;;;;;;7.90;2.60;;;;;;;;;;4991014;28;20197;-42
2022/10/03 13:48:43;;;;;;;9.77;2.67;;;;;;;;;;4987032;28;20168;-43
2022/10/03 13:51:23;;;;;;;7.93;2.37;;;;;;;;;;4987580;28;20173;-41
2022/10/03 13:54:10;;;;;;;10.47;2.80;;;;;;;;;;4989702;28;20205;-43
2022/10/03 13:56:49;;;;;;;9.30;2.90;;;;;;;;;;4989236;28;20188;-43
2022/10/03 13:59:34;;;;;;;12.40;2.73;;;;;;;;;;4987965;28;20211;-43
2022/10/03 14:02:04;;;;;;;7.20;2.60;;;;;;;;;;4989978;28;20165;-42
2022/10/03 14:04:43;;;;;;;11.60;2.87;;;;;;;;;;4989880;28;20217;-43
2022/10/03 14:07:28;;;;;;;8.70;2.73;;;;;;;;;;4992568;28;20196;-43
2022/10/03 14:10:12;;;;;;;7.83;2.63;;;;;;;;;;4987561;28;20165;-43
2022/10/03 14:12:43;;;;;;;8.53;2.63;;;;;;;;;;4984250;28;20647;-42
2022/10/03 14:15:10;;;;;;;8.03;2.67;;;;;;;;;;4988056;28;20179;-43
2022/10/03 14:17:49;;;;;;;11.53;3.10;;;;;;;;;;4990018;28;20241;-43
2022/10/03 14:20:20;;;;;;;6.90;2.90;;;;;;;;;;4991741;28;20169;-43
2022/10/03 14:22:52;;;;;;;11.27;2.73;;;;;;;;;;4989373;28;20482;-43
2022/10/03 14:25:28;;;;;;;9.03;2.93;;;;;;;;;;4987620;28;20181;-41
2022/10/03 14:28:01;;;;;;;20.17;3.13;;;;;;;;;;4983928;28;20974;-41
2022/10/03 14:30:28;;;;;;;9.27;3.07;;;;;;;;;;4986072;28;20174;-43
2022/10/03 14:33:00;;;;;;;9.13;2.87;;;;;;;;;;4990109;28;20179;-43
2022/10/03 14:35:38;;;;;;;6.80;2.47;;;;;;;;;;4985250;28;20177;-42
2022/10/03 14:38:23;;;;;;;11.93;2.90;;;;;;;;;;4985556;28;20167;-42
2022/10/03 14:40:52;;;;;;;12.77;2.90;;;;;;;;;;4987359;28;20173;-43
2022/10/03 14:43:27;;;;;;;7.87;2.40;;;;;;;;;;4988820;28;20277;-43
2022/10/03 14:45:56;;;;;;;8.73;2.87;;;;;;;;;;4989216;28;20717;-42
2022/10/03 14:48:28;;;;;;;8.87;3.07;;;;;;;;;;4989569;28;20459;-43
2022/10/03 14:50:59;;;;;;;10.07;3.03;;;;;;;;;;4984179;28;20787;-43
2022/10/03 14:53:28;;;;;;;12.73;3.17;;;;;;;;;;4985718;28;20196;-42
2022/10/03 14:56:05;;;;;;;6.53;2.17;;;;;;;;;;4976925;28;20525;-43
2022/10/03 14:58:37;;;;;;;11.80;2.70;;;;;;;;;;4950647;28;20390;-43
2022/10/03 15:01:14;;;;;;;8.87;2.50;;;;;;;;;;4988261;28;20277;-43
2022/10/03 15:04:00;;;;;;;8.87;2.47;;;;;;;;;;4983529;28;20197;-42
2022/10/03 15:06:32;;;;;;;7.00;2.57;;;;;;;;;;4983819;28;20185;-43
2022/10/03 15:09:00;;;;;;;9.67;2.83;;;;;;;;;;4987059;28;20600;-43
2022/10/03 15:11:28;;;;;;;13.13;3.30;;;;;;;;;;4986366;28;20185;-43
2022/10/03 15:13:56;;;;;;;9.70;2.93;;;;;;;;;;4989946;28;20400;-43
2022/10/03 15:16:23;;;;;;;9.03;2.73;;;;;;;;;;4986835;28;20959;-43
2022/10/03 15:18:55;;;;;;;9.37;3.07;;;;;;;;;;4987240;28;20203;-42
2022/10/03 15:21:21;;;;;;;9.70;2.90;;;;;;;;;;4988552;28;20177;-42
2022/10/03 15:23:52;;;;;;;10.63;2.80;;;;;;;;;;4989877;28;20219;-41
2022/10/03 15:26:20;;;;;;;10.90;3.10;;;;;;;;;;4985705;28;20251;-43
2022/10/03 15:28:50;;;;;;;7.60;2.90;;;;;;;;;;4983536;28;20212;-42
2022/10/03 15:31:28;;;;;;;11.87;3.30;;;;;;;;;;4987013;28;20487;-43
2022/10/03 15:33:55;;;;;;;9.70;3.07;;;;;;;;;;4985354;28;20181;-43
2022/10/03 15:36:29;;;;;;;12.43;3.10;;;;;;;;;;4980734;28;20716;-42
2022/10/03 15:39:02;;;;;;;10.03;2.90;;;;;;;;;;4986689;28;20463;-43